Time;durP1;ratioP1;P1;durP2;ratioP2;P2;SDS_P1;SDS_P2;PMS_P1;PMS_P2;Temp;Humidity;BMP_temperature;BMP_pressure;BME280_temperature;BME280_humidity;BME280_pressure;Samples;Min_cycle;Max_cycle;Signal;HPM_P1;HPM_P2
2023/09/15 00:00:34;;;;;;;0.00;0.00;;;;;;;11.87;89.05;100497.50;4984704;28;20023;-75
2023/09/15 00:03:01;;;;;;;0.00;0.00;;;;;;;11.85;89.28;100499.66;4946023;28;20794;-77
2023/09/15 00:05:32;;;;;;;0.00;0.00;;;;;;;11.89;89.66;100502.69;4982954;28;20377;-75
2023/09/15 00:08:00;;;;;;;0.00;0.00;;;;;;;11.72;89.30;100480.22;4981951;28;20465;-75
2023/09/15 00:10:26;;;;;;;0.00;0.00;;;;;;;11.98;89.88;100523.00;4985239;28;20027;-75
2023/09/15 00:12:52;;;;;;;0.00;0.00;;;;;;;11.73;90.02;100479.13;4962996;28;20038;-74
2023/09/15 00:15:20;;;;;;;0.00;0.00;;;;;;;11.77;90.18;100482.94;4984385;28;20066;-76
2023/09/15 00:17:47;;;;;;;0.00;0.00;;;;;;;11.81;90.97;100497.75;4966884;28;20511;-75
2023/09/15 00:20:13;;;;;;;0.00;0.00;;;;;;;11.84;90.69;100489.81;4967768;28;20053;-78
2023/09/15 00:22:45;;;;;;;0.00;0.00;;;;;;;11.77;91.29;100480.19;4972577;28;20732;-78
2023/09/15 00:25:13;;;;;;;0.00;0.00;;;;;;;11.79;91.36;100483.50;4980947;28;20135;-77
2023/09/15 00:27:38;;;;;;;0.00;0.00;;;;;;;11.70;91.78;100475.81;4953024;28;20026;-78
2023/09/15 00:30:25;;;;;;;;;;;;;;;;;;;;;
2023/09/15 00:32:59;;;;;;;0.00;0.00;;;;;;;11.68;92.33;100480.75;4973156;28;20057;-77
2023/09/15 00:35:35;;;;;;;0.00;0.00;;;;;;;11.48;92.29;100450.59;4968705;28;20378;-76
2023/09/15 00:38:18;;;;;;;0.00;0.00;;;;;;;11.44;92.65;100444.03;4989835;28;20022;-78
2023/09/15 00:40:46;;;;;;;0.00;0.00;;;;;;;11.59;92.86;100474.16;4978671;28;20030;-78
2023/09/15 00:43:14;;;;;;;0.00;0.00;;;;;;;11.62;92.38;100479.13;4972893;28;20046;-76
2023/09/15 00:45:40;;;;;;;0.00;0.00;;;;;;;11.67;92.74;100489.25;4965762;28;20045;-77
2023/09/15 00:48:09;;;;;;;0.00;0.00;;;;;;;11.62;92.70;100479.13;4990054;28;20487;-76
2023/09/15 00:50:35;;;;;;;0.00;0.00;;;;;;;11.56;92.88;100473.88;4965443;28;20035;-76
2023/09/15 00:53:08;;;;;;;0.00;0.00;;;;;;;11.54;93.17;100474.16;4955710;28;20092;-76
2023/09/15 00:55:34;;;;;;;0.00;0.00;;;;;;;11.56;92.70;100477.44;4987149;28;20057;-76
2023/09/15 00:58:04;;;;;;;0.00;0.00;;;;;;;11.48;93.29;100464.28;4968479;28;20109;-76
2023/09/15 01:00:30;;;;;;;0.00;0.00;;;;;;;11.60;93.19;100481.28;4989610;28;20389;-76
2023/09/15 01:02:58;;;;;;;0.00;0.00;;;;;;;11.44;93.19;100454.97;4978636;28;20029;-75
2023/09/15 01:05:29;;;;;;;0.00;0.00;;;;;;;11.39;92.78;100444.00;4969922;28;20796;-76
2023/09/15 01:07:55;;;;;;;0.00;0.00;;;;;;;11.29;92.80;100436.59;4979296;28;20034;-76
2023/09/15 01:10:24;;;;;;;0.00;0.00;;;;;;;11.45;93.58;100451.16;4973374;28;20026;-76
2023/09/15 01:12:51;;;;;;;0.00;0.00;;;;;;;11.49;92.95;100463.19;4964246;28;20065;-75
2023/09/15 01:15:17;;;;;;;0.00;0.00;;;;;;;11.58;93.58;100477.16;4985336;28;20042;-76
2023/09/15 01:17:52;;;;;;;0.00;0.00;;;;;;;11.55;93.72;100472.22;4952892;28;20057;-77
2023/09/15 01:20:41;;;;;;;0.00;0.00;;;;;;;11.55;92.95;100472.22;4974216;28;20030;-76
2023/09/15 01:23:34;;;;;;;0.00;0.00;;;;;;;11.53;93.48;100475.25;4964099;28;20045;-76
2023/09/15 01:26:26;;;;;;;0.00;0.00;;;;;;;11.49;93.56;100479.63;4963035;28;20122;-76
2023/09/15 01:29:13;;;;;;;0.00;0.00;;;;;;;11.48;93.19;100478.00;4983887;28;20022;-77
2023/09/15 01:31:41;;;;;;;0.00;0.00;;;;;;;11.45;92.88;100475.78;4978005;28;20041;-77
2023/09/15 01:34:16;;;;;;;0.00;0.00;;;;;;;11.22;93.23;100441.50;4968166;28;20045;-77
2023/09/15 01:36:43;;;;;;;0.00;0.00;;;;;;;11.44;92.98;100477.69;4982286;28;20026;-76
2023/09/15 01:39:10;;;;;;;0.00;0.00;;;;;;;11.41;93.44;100471.94;4982332;28;20749;-77
2023/09/15 01:41:35;;;;;;;0.00;0.00;;;;;;;11.45;92.86;100481.28;4983344;28;20110;-77
2023/09/15 01:44:01;;;;;;;0.00;0.00;;;;;;;11.45;93.77;100487.56;4960419;28;20117;-76
2023/09/15 01:46:26;;;;;;;0.00;0.00;;;;;;;11.48;93.56;100478.00;4966911;28;20041;-75
2023/09/15 01:48:57;;;;;;;0.00;0.00;;;;;;;11.38;93.55;100456.06;4966438;28;20061;-76
2023/09/15 01:51:26;;;;;;;0.00;0.00;;;;;;;11.51;93.08;100474.72;4998689;28;20046;-76
2023/09/15 01:53:52;;;;;;;0.00;0.00;;;;;;;11.50;93.18;100462.91;4951325;28;20170;-78
2023/09/15 01:56:21;;;;;;;0.03;0.03;;;;;;;11.57;92.84;100470.88;4951744;28;20039;-76
2023/09/15 01:58:46;;;;;;;0.00;0.00;;;;;;;11.51;93.11;100458.28;4983838;28;20057;-76
2023/09/15 02:01:12;;;;;;;0.00;0.00;;;;;;;11.46;93.62;100448.13;4983840;28;20105;-77
2023/09/15 02:03:37;;;;;;;0.00;0.00;;;;;;;11.41;93.49;100439.09;4954623;28;20057;-77
2023/09/15 02:06:04;;;;;;;0.00;0.00;;;;;;;11.57;93.26;100454.44;4947452;28;20027;-77
2023/09/15 02:08:33;;;;;;;0.00;0.00;;;;;;;11.56;93.86;100458.25;4964592;28;20064;-78
2023/09/15 02:11:03;;;;;;;0.00;0.00;;;;;;;11.45;93.30;100440.19;4963551;28;20105;-77
2023/09/15 02:13:28;;;;;;;0.00;0.00;;;;;;;11.52;94.05;100451.69;4980246;28;20097;-75
2023/09/15 02:15:54;;;;;;;0.00;0.00;;;;;;;11.38;93.53;100431.41;4991416;28;20043;-75
2023/09/15 02:18:21;;;;;;;0.00;0.00;;;;;;;11.43;94.05;100447.84;4965615;28;20030;-75
2023/09/15 02:20:56;;;;;;;0.00;0.00;;;;;;;11.42;93.81;100443.44;4934344;28;20029;-75
2023/09/15 02:23:22;;;;;;;0.00;0.00;;;;;;;11.42;94.01;100446.19;4996994;28;20053;-75
2023/09/15 02:25:47;;;;;;;0.00;0.00;;;;;;;11.41;93.95;100450.03;4962721;28;20113;-76
2023/09/15 02:28:20;;;;;;;0.00;0.00;;;;;;;11.26;93.86;100429.75;4946731;28;20031;-76
2023/09/15 02:30:49;;;;;;;0.00;0.00;;;;;;;11.26;93.88;100421.53;4955663;28;20035;-77
2023/09/15 02:33:24;;;;;;;0.00;0.00;;;;;;;11.24;93.77;100423.72;4985799;28;20116;-74
2023/09/15 02:35:51;;;;;;;0.00;0.00;;;;;;;11.20;93.97;100417.16;4978570;28;20472;-76
2023/09/15 02:38:16;;;;;;;0.00;0.00;;;;;;;11.24;94.20;100422.91;4953596;28;20085;-75
2023/09/15 02:40:42;;;;;;;0.00;0.00;;;;;;;11.22;94.01;100428.63;4989442;28;20022;-76
2023/09/15 02:43:10;;;;;;;0.00;0.00;;;;;;;11.21;94.56;100429.72;4949775;28;20034;-76
2023/09/15 02:45:36;;;;;;;0.00;0.00;;;;;;;11.18;94.58;100430.28;4965688;28;20093;-75
2023/09/15 02:48:05;;;;;;;0.00;0.00;;;;;;;11.17;94.41;100431.38;4963238;28;20030;-76
2023/09/15 02:50:31;;;;;;;0.00;0.00;;;;;;;11.10;94.19;100417.94;4980503;28;20102;-76
2023/09/15 02:52:59;;;;;;;0.00;0.00;;;;;;;11.06;94.80;100413.28;4961537;28;20037;-76
2023/09/15 02:55:25;;;;;;;0.00;0.00;;;;;;;11.14;94.45;100420.94;4984599;28;20029;-76
2023/09/15 02:57:54;;;;;;;0.00;0.00;;;;;;;11.12;94.78;100423.97;4961653;28;20679;-76
2023/09/15 03:00:20;;;;;;;0.00;0.00;;;;;;;11.12;94.15;100423.13;4986412;28;20088;-75
2023/09/15 03:02:48;;;;;;;0.00;0.00;;;;;;;11.10;94.59;100411.66;4982578;28;20026;-75
2023/09/15 03:05:14;;;;;;;0.00;0.00;;;;;;;11.18;94.04;100413.84;4964194;28;20034;-75
2023/09/15 03:07:40;;;;;;;0.00;0.00;;;;;;;11.21;93.99;100424.25;4964431;28;20030;-76
2023/09/15 03:10:10;;;;;;;0.00;0.00;;;;;;;11.18;94.37;100402.91;4980817;28;20026;-76
2023/09/15 03:12:36;;;;;;;0.00;0.00;;;;;;;11.18;94.03;100408.38;4984572;28;20023;-75
2023/09/15 03:15:06;;;;;;;0.00;0.00;;;;;;;11.24;94.34;100417.41;4941430;28;20046;-75
2023/09/15 03:17:39;;;;;;;0.00;0.00;;;;;;;11.18;94.08;100400.16;4943480;28;20027;-76
2023/09/15 03:20:13;;;;;;;0.00;0.00;;;;;;;11.13;94.36;100400.16;4924653;28;20035;-75
2023/09/15 03:22:43;;;;;;;0.00;0.00;;;;;;;10.96;94.56;100379.31;4965419;28;20016;-76
2023/09/15 03:25:09;;;;;;;0.00;0.00;;;;;;;11.00;94.23;100394.09;4945954;28;20035;-77
2023/09/15 03:27:34;;;;;;;0.00;0.00;;;;;;;10.95;94.18;100383.16;4946074;28;20125;-76
2023/09/15 03:30:00;;;;;;;0.00;0.00;;;;;;;11.04;94.44;100407.25;4929478;29;20114;-75
2023/09/15 03:32:27;;;;;;;0.00;0.00;;;;;;;10.97;94.30;100393.81;4940070;28;20031;-75
2023/09/15 03:34:55;;;;;;;0.00;0.00;;;;;;;10.87;95.03;100391.88;4924238;28;20039;-75
2023/09/15 03:37:21;;;;;;;0.00;0.00;;;;;;;10.96;94.82;100401.19;4942402;28;20035;-76
2023/09/15 03:39:46;;;;;;;0.00;0.00;;;;;;;10.94;94.20;100397.09;4944472;28;20086;-75
2023/09/15 03:42:11;;;;;;;0.00;0.00;;;;;;;10.79;94.21;100385.03;4947579;28;20457;-75
2023/09/15 03:44:42;;;;;;;0.00;0.00;;;;;;;10.75;94.30;100374.91;4958565;28;20040;-76
2023/09/15 03:47:08;;;;;;;0.00;0.00;;;;;;;10.68;94.43;100355.97;4936943;28;20118;-76
2023/09/15 03:49:34;;;;;;;0.00;0.00;;;;;;;10.74;94.15;100365.03;4952395;28;20067;-75
2023/09/15 03:52:02;;;;;;;0.00;0.00;;;;;;;10.80;94.05;100375.69;4947551;28;20043;-77
2023/09/15 03:54:28;;;;;;;0.00;0.00;;;;;;;10.75;94.04;100358.47;4943269;28;20031;-76
2023/09/15 03:56:54;;;;;;;0.00;0.00;;;;;;;10.83;93.83;100368.88;4935654;29;20101;-76
2023/09/15 03:59:40;;;;;;;0.00;0.00;;;;;;;10.85;93.83;100372.19;4943793;28;20470;-77
2023/09/15 04:02:05;;;;;;;0.00;0.00;;;;;;;10.77;94.11;100359.03;4948246;28;20108;-73
2023/09/15 04:04:31;;;;;;;0.00;0.00;;;;;;;10.91;93.83;100365.63;4955517;28;20047;-73
2023/09/15 04:06:56;;;;;;;0.00;0.00;;;;;;;11.11;93.38;100380.44;4962994;28;20042;-72
2023/09/15 04:09:24;;;;;;;0.00;0.00;;;;;;;11.16;92.83;100384.00;4942391;28;20038;-72
2023/09/15 04:11:51;;;;;;;0.00;0.00;;;;;;;11.22;92.56;100384.84;4945371;28;20394;-72
2023/09/15 04:14:17;;;;;;;0.00;0.00;;;;;;;11.17;92.31;100373.91;4950323;28;20561;-73
2023/09/15 04:16:42;;;;;;;0.00;0.00;;;;;;;11.23;92.04;100386.50;4959740;28;20030;-72
2023/09/15 04:19:07;;;;;;;0.00;0.00;;;;;;;11.22;92.10;100368.41;4987110;28;20334;-72
2023/09/15 04:21:34;;;;;;;0.00;0.00;;;;;;;11.25;92.14;100375.28;4965865;28;20027;-73
2023/09/15 04:23:59;;;;;;;0.00;0.00;;;;;;;11.25;91.91;100375.28;4976393;28;20117;-73
2023/09/15 04:26:25;;;;;;;0.00;0.00;;;;;;;11.27;91.88;100371.19;4965365;28;20030;-74
2023/09/15 04:28:50;;;;;;;0.00;0.00;;;;;;;11.30;92.04;100373.38;4950751;28;20452;-73
2023/09/15 04:31:16;;;;;;;0.00;0.00;;;;;;;11.30;91.81;100367.91;4984326;28;20026;-72
2023/09/15 04:33:41;;;;;;;0.00;0.00;;;;;;;11.25;91.97;100367.88;4979834;28;20443;-72
2023/09/15 04:36:09;;;;;;;0.00;0.00;;;;;;;11.30;91.74;100362.41;4967786;28;20030;-75
2023/09/15 04:38:34;;;;;;;0.00;0.00;;;;;;;11.31;91.73;100358.56;4946468;28;20049;-72
2023/09/15 04:41:00;;;;;;;0.00;0.00;;;;;;;11.33;91.56;100350.91;4962015;28;20030;-73
2023/09/15 04:43:25;;;;;;;0.00;0.00;;;;;;;11.35;91.38;100356.13;4970115;28;20042;-74
2023/09/15 04:45:50;;;;;;;0.00;0.00;;;;;;;11.35;91.31;100348.72;4943439;28;20157;-75
2023/09/15 04:48:16;;;;;;;0.00;0.00;;;;;;;11.36;91.96;100355.03;4985472;28;20118;-73
2023/09/15 04:50:42;;;;;;;0.00;0.00;;;;;;;11.34;91.47;100351.72;4929491;28;20121;-74
2023/09/15 04:53:07;;;;;;;0.00;0.00;;;;;;;11.33;91.49;100355.56;4977700;28;20034;-73
2023/09/15 04:55:33;;;;;;;0.00;0.00;;;;;;;11.29;91.39;100344.34;4971817;28;20084;-73
2023/09/15 04:57:59;;;;;;;0.00;0.00;;;;;;;11.35;92.07;100354.19;4964427;28;20117;-73
2023/09/15 05:00:29;;;;;;;0.00;0.00;;;;;;;11.34;92.11;100351.72;4984167;28;20543;-73
2023/09/15 05:02:56;;;;;;;0.00;0.00;;;;;;;11.28;92.21;100347.34;4979455;28;20131;-70
2023/09/15 05:05:21;;;;;;;0.00;0.00;;;;;;;11.27;91.80;100352.03;4952281;28;20045;-75
2023/09/15 05:07:47;;;;;;;0.00;0.00;;;;;;;11.24;91.96;100358.00;4957091;28;20381;-75
2023/09/15 05:10:12;;;;;;;0.00;0.00;;;;;;;11.18;91.96;100350.91;4967992;28;20126;-75
2023/09/15 05:12:38;;;;;;;0.10;0.10;;;;;;;11.15;92.03;100354.19;4966324;28;20037;-75
2023/09/15 05:15:04;;;;;;;0.00;0.00;;;;;;;11.15;92.23;100348.69;4981735;28;20047;-71
2023/09/15 05:17:30;;;;;;;0.08;0.08;;;;;;;11.13;92.11;100345.44;4965453;28;20034;-72
2023/09/15 05:19:56;;;;;;;0.00;0.00;;;;;;;11.11;92.61;100342.13;4987996;28;20037;-71
2023/09/15 05:22:25;;;;;;;0.00;0.00;;;;;;;11.10;92.21;100335.84;4943926;28;20037;-74
2023/09/15 05:24:50;;;;;;;0.00;0.00;;;;;;;11.13;92.01;100334.47;4968454;28;20088;-72
2023/09/15 05:27:18;;;;;;;0.00;0.00;;;;;;;11.21;92.17;100352.28;4940567;28;20042;-73
2023/09/15 05:29:44;;;;;;;0.00;0.00;;;;;;;11.21;92.34;100347.63;4933768;28;20153;-72
2023/09/15 05:32:09;;;;;;;0.00;0.00;;;;;;;11.21;91.99;100341.31;4948738;28;20117;-72
2023/09/15 05:34:35;;;;;;;0.00;0.00;;;;;;;11.22;92.16;100338.31;4948831;28;20034;-73
2023/09/15 05:37:03;;;;;;;0.00;0.00;;;;;;;11.28;91.91;100329.00;4951562;28;20034;-70
2023/09/15 05:39:30;;;;;;;0.00;0.00;;;;;;;11.32;92.29;100338.31;4949984;28;20035;-73
2023/09/15 05:41:56;;;;;;;0.10;0.10;;;;;;;11.44;91.95;100342.72;4959222;28;20018;-72
2023/09/15 05:44:21;;;;;;;0.00;0.00;;;;;;;11.46;91.82;100324.06;4981039;28;20022;-70
2023/09/15 05:46:49;;;;;;;0.00;0.00;;;;;;;11.52;91.75;100325.72;4951812;28;20069;-72
2023/09/15 05:49:17;;;;;;;0.00;0.00;;;;;;;11.52;91.69;100325.72;4977842;28;20969;-72
2023/09/15 05:51:43;;;;;;;0.00;0.00;;;;;;;11.59;91.57;100330.94;4968680;28;20039;-73
2023/09/15 05:54:09;;;;;;;0.00;0.00;;;;;;;11.53;91.60;100327.38;4977206;28;20030;-73
2023/09/15 05:56:34;;;;;;;0.00;0.00;;;;;;;11.58;91.76;100334.75;4967476;28;20033;-73
2023/09/15 05:59:06;;;;;;;0.00;0.00;;;;;;;11.53;91.74;100314.50;4966261;28;20034;-71
2023/09/15 06:01:31;;;;;;;0.00;0.00;;;;;;;11.53;91.21;100305.47;4948021;28;20117;-72
2023/09/15 06:03:59;;;;;;;0.00;0.00;;;;;;;11.70;91.96;100321.59;4977311;28;20145;-71
2023/09/15 06:06:25;;;;;;;0.00;0.00;;;;;;;11.77;91.34;100324.03;4962608;28;20038;-76
2023/09/15 06:08:51;;;;;;;0.00;0.00;;;;;;;11.87;91.50;100318.53;4975450;28;20042;-75
2023/09/15 06:11:17;;;;;;;0.00;0.00;;;;;;;12.12;91.30;100317.72;4961939;28;20034;-71
2023/09/15 06:13:42;;;;;;;0.00;0.00;;;;;;;12.35;90.03;100310.78;4982194;28;20042;-73
2023/09/15 06:16:08;;;;;;;0.00;0.00;;;;;;;12.81;89.73;100317.13;4960986;28;20145;-73
2023/09/15 06:18:34;;;;;;;0.00;0.00;;;;;;;13.32;88.30;100316.75;4943725;28;20027;-74
2023/09/15 06:20:59;;;;;;;0.00;0.00;;;;;;;13.56;85.70;100316.03;4963683;28;20031;-76
2023/09/15 06:23:25;;;;;;;0.00;0.00;;;;;;;13.68;84.98;100323.91;4929784;28;20061;-73
2023/09/15 06:25:53;;;;;;;0.00;0.00;;;;;;;13.86;84.63;100319.63;4964321;28;20483;-75
2023/09/15 06:28:19;;;;;;;0.00;0.00;;;;;;;14.03;83.65;100317.25;4971133;28;20034;-76
2023/09/15 06:30:44;;;;;;;0.00;0.00;;;;;;;14.09;83.40;100312.47;4963823;28;20083;-74
2023/09/15 06:33:10;;;;;;;0.00;0.00;;;;;;;14.23;83.18;100323.59;4929919;28;20026;-75
2023/09/15 06:35:35;;;;;;;0.00;0.00;;;;;;;14.47;82.62;100324.41;4939600;28;20038;-74
2023/09/15 06:38:02;;;;;;;0.00;0.00;;;;;;;14.64;82.03;100318.41;4962321;28;20035;-74
2023/09/15 06:40:28;;;;;;;0.00;0.00;;;;;;;14.91;81.20;100327.97;4941411;28;20114;-76
2023/09/15 06:42:54;;;;;;;0.00;0.00;;;;;;;14.83;80.50;100315.72;4966461;28;20443;-76
2023/09/15 06:45:19;;;;;;;0.00;0.00;;;;;;;14.72;80.52;100314.22;4930168;28;20117;-74
2023/09/15 06:47:44;;;;;;;0.00;0.00;;;;;;;14.74;81.02;100311.97;4930038;28;20031;-75
2023/09/15 06:50:10;;;;;;;0.00;0.00;;;;;;;14.77;80.77;100299.56;4915408;28;20023;-74
2023/09/15 06:52:35;;;;;;;0.00;0.00;;;;;;;15.10;80.49;100314.19;4942409;28;20529;-76
2023/09/15 06:55:01;;;;;;;0.00;0.00;;;;;;;15.31;80.23;100313.88;4968422;28;20503;-76
2023/09/15 06:57:26;;;;;;;0.00;0.00;;;;;;;15.33;79.77;100308.88;4963589;28;20034;-75
2023/09/15 06:59:55;;;;;;;0.00;0.00;;;;;;;15.19;79.64;100301.38;4935156;28;20027;-75
2023/09/15 07:02:23;;;;;;;0.00;0.00;;;;;;;15.17;79.73;100313.81;4958046;28;20043;-76
2023/09/15 07:04:48;;;;;;;0.00;0.00;;;;;;;15.03;80.29;100305.50;4949664;28;20030;-76
2023/09/15 07:07:14;;;;;;;0.00;0.00;;;;;;;15.03;80.26;100305.50;4948427;28;20558;-75
2023/09/15 07:09:52;;;;;;;;;;;;;;;;;;;;;
2023/09/15 07:12:18;;;;;;;0.00;0.00;;;;;;;15.22;79.52;100297.22;4951327;28;20061;-76
2023/09/15 07:14:53;;;;;;;;;;;;;;;;;;;;;
2023/09/15 07:17:20;;;;;;;0.00;0.00;;;;;;;15.66;79.35;100325.41;4953021;28;20026;-77
2023/09/15 07:19:46;;;;;;;0.00;0.00;;;;;;;15.67;78.31;100311.31;4950032;28;20043;-75
2023/09/15 07:22:14;;;;;;;0.00;0.00;;;;;;;15.94;78.18;100326.28;4951328;28;20040;-76
2023/09/15 07:24:41;;;;;;;0.00;0.00;;;;;;;16.01;77.54;100303.84;4989566;28;20028;-76
2023/09/15 07:27:08;;;;;;;0.00;0.00;;;;;;;16.31;77.50;100318.13;4968080;28;20578;-75
2023/09/15 07:29:39;;;;;;;0.00;0.00;;;;;;;16.62;76.92;100320.25;4985808;28;20057;-75
2023/09/15 07:32:05;;;;;;;0.00;0.00;;;;;;;16.74;76.37;100299.28;4964014;28;20023;-75
2023/09/15 07:34:31;;;;;;;0.00;0.00;;;;;;;16.91;75.54;100293.13;4961905;28;20030;-77
2023/09/15 07:36:56;;;;;;;0.00;0.00;;;;;;;17.31;74.77;100313.75;4969741;28;20030;-76
2023/09/15 07:39:22;;;;;;;0.00;0.00;;;;;;;17.61;74.15;100303.88;4953356;28;20068;-76
2023/09/15 07:41:47;;;;;;;0.00;0.00;;;;;;;17.91;73.17;100307.78;4971152;28;20534;-76
2023/09/15 07:44:13;;;;;;;0.00;0.00;;;;;;;18.29;72.14;100323.06;4982362;28;20035;-76
2023/09/15 07:46:41;;;;;;;0.00;0.00;;;;;;;18.40;71.73;100310.56;4981242;28;20362;-75
2023/09/15 07:49:07;;;;;;;0.00;0.00;;;;;;;18.24;71.83;100304.66;4962546;28;20046;-75
2023/09/15 07:51:35;;;;;;;0.00;0.00;;;;;;;18.43;71.34;100307.16;4951974;28;20500;-75
2023/09/15 07:54:01;;;;;;;0.00;0.00;;;;;;;18.78;71.14;100328.56;4952910;28;20578;-75
2023/09/15 07:56:31;;;;;;;0.00;0.00;;;;;;;18.98;70.26;100333.50;4968824;28;20039;-78
2023/09/15 07:58:57;;;;;;;0.00;0.00;;;;;;;18.92;69.90;100328.44;4981235;28;20088;-78
2023/09/15 08:01:40;;;;;;;;;;;;;;;;;;;;;
2023/09/15 08:04:15;;;;;;;0.00;0.00;;;;;;;19.09;69.55;100303.50;4977263;28;20518;-74
2023/09/15 08:06:40;;;;;;;0.00;0.00;;;;;;;19.33;69.01;100321.59;4978279;28;20649;-75
2023/09/15 08:09:06;;;;;;;0.00;0.00;;;;;;;19.48;68.28;100317.50;4950252;28;20026;-75
2023/09/15 08:11:37;;;;;;;0.00;0.00;;;;;;;19.48;68.17;100329.41;4983452;28;20560;-74
2023/09/15 08:14:03;;;;;;;0.00;0.00;;;;;;;19.53;67.97;100320.09;4983343;28;20038;-76
2023/09/15 08:16:28;;;;;;;0.00;0.00;;;;;;;19.81;67.75;100325.28;4948761;28;20065;-74
2023/09/15 08:18:54;;;;;;;0.00;0.00;;;;;;;20.15;66.99;100329.06;4959672;28;20030;-75
2023/09/15 08:21:19;;;;;;;0.00;0.00;;;;;;;20.56;65.97;100313.69;4948057;28;20031;-76
2023/09/15 08:23:45;;;;;;;0.00;0.00;;;;;;;20.94;65.39;100315.56;4947097;28;20114;-75
2023/09/15 08:26:10;;;;;;;0.00;0.00;;;;;;;21.21;64.20;100327.28;4946446;28;20397;-75
2023/09/15 08:28:36;;;;;;;0.00;0.00;;;;;;;21.33;64.21;100321.75;4959607;28;20031;-74
2023/09/15 08:31:01;;;;;;;0.00;0.00;;;;;;;21.29;63.16;100326.41;4979442;28;20038;-75
2023/09/15 08:33:27;;;;;;;0.00;0.00;;;;;;;21.34;63.74;100317.84;4937939;28;20026;-77
2023/09/15 08:36:10;;;;;;;0.00;0.00;;;;;;;21.41;63.53;100303.38;4949061;28;20062;-76
2023/09/15 08:38:35;;;;;;;0.00;0.00;;;;;;;21.66;62.48;100329.34;4956649;28;20023;-74
2023/09/15 08:41:19;;;;;;;0.00;0.00;;;;;;;21.77;62.50;100333.31;4942041;28;20081;-76
2023/09/15 08:43:46;;;;;;;0.00;0.00;;;;;;;21.81;62.13;100329.84;4991163;28;20030;-76
2023/09/15 08:46:13;;;;;;;0.00;0.00;;;;;;;21.77;62.58;100324.97;4989348;28;20138;-76
2023/09/15 08:48:40;;;;;;;0.00;0.00;;;;;;;22.15;61.32;100325.81;4983668;28;20027;-78
2023/09/15 08:51:06;;;;;;;0.00;0.00;;;;;;;22.72;60.21;100329.66;4964092;28;20049;-76
2023/09/15 08:53:33;;;;;;;0.00;0.00;;;;;;;23.20;59.43;100327.09;4981564;28;20081;-76
2023/09/15 08:56:01;;;;;;;0.00;0.00;;;;;;;23.73;58.48;100332.59;4954478;28;20022;-73
2023/09/15 08:58:27;;;;;;;0.00;0.00;;;;;;;24.75;56.89;100319.97;4967186;28;20019;-75
2023/09/15 09:00:57;;;;;;;0.00;0.00;;;;;;;25.52;53.88;100307.16;4971779;28;20026;-76
2023/09/15 09:03:23;;;;;;;0.00;0.00;;;;;;;25.71;52.72;100314.72;4955558;28;20038;-74
2023/09/15 09:05:49;;;;;;;0.00;0.00;;;;;;;26.26;51.85;100317.28;4989022;28;20038;-76
2023/09/15 09:08:21;;;;;;;0.00;0.00;;;;;;;26.63;50.85;100318.63;4983451;28;20080;-76
2023/09/15 09:10:52;;;;;;;0.00;0.00;;;;;;;27.15;49.35;100316.16;4976718;28;20030;-76
2023/09/15 09:13:23;;;;;;;0.00;0.00;;;;;;;27.50;48.86;100310.19;4981498;28;20061;-75
2023/09/15 09:15:50;;;;;;;0.00;0.00;;;;;;;28.20;47.67;100304.84;4968340;28;20061;-75
2023/09/15 09:18:18;;;;;;;0.00;0.00;;;;;;;29.53;45.65;100307.56;4939376;28;20036;-76
2023/09/15 09:20:53;;;;;;;0.00;0.00;;;;;;;31.85;41.87;100294.56;4939929;28;20019;-75
2023/09/15 09:23:22;;;;;;;0.00;0.00;;;;;;;32.57;39.46;100299.56;4939919;28;20415;-77
2023/09/15 09:25:47;;;;;;;0.00;0.00;;;;;;;34.32;37.86;100310.97;4907718;29;20028;-76
2023/09/15 09:28:14;;;;;;;0.00;0.00;;;;;;;37.20;33.86;100301.34;4938825;28;20133;-76
2023/09/15 09:30:39;;;;;;;0.00;0.00;;;;;;;39.95;30.21;100293.19;4935521;28;20030;-76
2023/09/15 09:33:05;;;;;;;0.00;0.00;;;;;;;42.09;27.68;100296.47;4931628;28;20111;-76
2023/09/15 09:35:31;;;;;;;0.00;0.00;;;;;;;43.69;25.84;100296.03;4929652;28;20054;-75
2023/09/15 09:38:00;;;;;;;0.00;0.00;;;;;;;44.28;24.94;100307.34;4919824;29;20023;-75
2023/09/15 09:40:26;;;;;;;0.00;0.00;;;;;;;45.12;23.81;100282.81;4951504;28;20109;-76
2023/09/15 09:42:58;;;;;;;0.00;0.00;;;;;;;46.38;22.78;100277.28;4928591;28;20107;-76
2023/09/15 09:45:26;;;;;;;0.00;0.00;;;;;;;47.69;21.01;100287.59;4956930;28;20101;-76
2023/09/15 09:47:54;;;;;;;0.00;0.00;;;;;;;47.23;20.70;100265.03;4925274;28;20262;-76
2023/09/15 09:50:20;;;;;;;0.00;0.00;;;;;;;46.92;19.72;100279.25;4937649;28;20042;-76
2023/09/15 09:52:46;;;;;;;0.00;0.00;;;;;;;45.89;19.09;100276.56;4940377;28;20106;-76
2023/09/15 09:55:15;;;;;;;0.00;0.00;;;;;;;45.04;19.33;100267.28;4948095;28;20114;-76
2023/09/15 09:57:42;;;;;;;0.00;0.00;;;;;;;45.11;19.39;100246.59;4936884;28;20040;-76
2023/09/15 10:00:17;;;;;;;0.00;0.00;;;;;;;45.82;18.21;100263.38;4948500;28;20031;-76
2023/09/15 10:02:43;;;;;;;0.00;0.00;;;;;;;44.39;19.34;100262.66;4899463;28;20497;-76
2023/09/15 10:05:09;;;;;;;0.00;0.00;;;;;;;43.74;20.30;100263.66;4929165;29;20035;-76
2023/09/15 10:07:38;;;;;;;0.00;0.00;;;;;;;45.75;19.56;100247.31;4931935;29;20028;-77
2023/09/15 10:10:06;;;;;;;0.00;0.00;;;;;;;47.85;18.16;100262.03;4939871;28;20022;-76
2023/09/15 10:12:33;;;;;;;0.00;0.00;;;;;;;48.19;17.48;100247.41;4942588;28;20059;-76
2023/09/15 10:14:59;;;;;;;0.00;0.00;;;;;;;47.72;18.08;100245.22;4947724;28;20126;-76
2023/09/15 10:17:26;;;;;;;0.00;0.00;;;;;;;46.13;18.14;100253.00;4953494;28;20045;-75
2023/09/15 10:19:56;;;;;;;0.00;0.00;;;;;;;44.93;17.99;100242.75;4949536;28;20026;-75
2023/09/15 10:22:22;;;;;;;0.00;0.00;;;;;;;41.30;20.43;100240.91;4949718;28;20030;-75
2023/09/15 10:24:58;;;;;;;0.00;0.00;;;;;;;38.18;23.49;100236.25;4969471;28;20043;-77
2023/09/15 10:27:28;;;;;;;0.00;0.00;;;;;;;39.70;24.04;100237.81;4945696;28;20033;-76
2023/09/15 10:29:54;;;;;;;0.00;0.00;;;;;;;43.50;20.72;100235.84;4965039;28;20042;-76
2023/09/15 10:32:20;;;;;;;0.00;0.00;;;;;;;45.68;17.01;100238.34;4947529;28;20069;-75
2023/09/15 10:34:47;;;;;;;0.00;0.00;;;;;;;45.37;18.41;100231.31;4956784;28;20035;-76
2023/09/15 10:37:13;;;;;;;0.00;0.00;;;;;;;46.19;17.20;100230.69;4965260;28;20054;-76
2023/09/15 10:39:43;;;;;;;0.00;0.00;;;;;;;46.04;18.15;100236.69;4962055;28;20053;-77
2023/09/15 10:42:15;;;;;;;0.00;0.00;;;;;;;46.83;17.45;100225.31;4934591;28;20399;-76
2023/09/15 10:44:41;;;;;;;0.00;0.00;;;;;;;48.31;16.71;100214.16;4928490;28;20034;-76
2023/09/15 10:47:20;;;;;;;0.00;0.00;;;;;;;50.88;15.44;100214.41;4957434;28;20431;-76
2023/09/15 10:49:54;;;;;;;0.00;0.00;;;;;;;52.31;14.30;100207.28;4945646;28;20050;-76
2023/09/15 10:52:34;;;;;;;0.00;0.00;;;;;;;52.56;11.93;100201.13;4947004;28;20034;-77
2023/09/15 10:55:00;;;;;;;0.00;0.00;;;;;;;50.02;13.87;100196.66;4926855;28;20110;-76
2023/09/15 10:57:26;;;;;;;0.00;0.00;;;;;;;46.85;15.30;100184.31;4944761;28;20042;-77
2023/09/15 11:00:06;;;;;;;0.00;0.00;;;;;;;43.24;17.71;100176.09;4960686;28;20039;-77
2023/09/15 11:02:35;;;;;;;0.00;0.00;;;;;;;43.73;18.20;100181.47;4976990;28;20023;-77
2023/09/15 11:05:01;;;;;;;0.00;0.00;;;;;;;46.00;17.23;100179.16;4960881;28;20736;-77
2023/09/15 11:07:26;;;;;;;0.00;0.00;;;;;;;46.37;17.04;100170.84;4966117;28;20054;-76
2023/09/15 11:10:03;;;;;;;0.00;0.00;;;;;;;46.27;17.36;100162.44;4924591;28;20058;-75
2023/09/15 11:12:29;;;;;;;0.00;0.00;;;;;;;48.48;15.95;100185.03;4966199;28;20097;-75
2023/09/15 11:15:00;;;;;;;0.00;0.00;;;;;;;49.64;15.14;100166.78;4954419;28;21163;-75
2023/09/15 11:17:30;;;;;;;0.00;0.00;;;;;;;48.70;15.38;100184.09;4945654;28;20086;-75
2023/09/15 11:19:57;;;;;;;0.00;0.00;;;;;;;49.79;15.29;100179.50;4980153;28;20470;-75
2023/09/15 11:22:22;;;;;;;0.00;0.00;;;;;;;50.79;14.60;100180.69;4958621;28;20099;-75
2023/09/15 11:24:51;;;;;;;0.00;0.00;;;;;;;50.47;14.92;100160.31;4939506;28;20371;-75
2023/09/15 11:27:17;;;;;;;0.00;0.00;;;;;;;50.38;15.27;100158.59;4925181;28;20505;-76
2023/09/15 11:29:42;;;;;;;0.00;0.00;;;;;;;52.84;13.60;100174.94;4949161;28;20047;-78
2023/09/15 11:32:13;;;;;;;0.00;0.00;;;;;;;49.80;14.83;100139.63;4959979;28;20101;-81